createdAt,value
2018-03-30T00:02:10.042Z,3.51
2018-03-30T00:04:37.489Z,3.57
2018-03-30T00:07:07.801Z,3.52
2018-03-30T00:09:47.179Z,3.38
2018-03-30T00:12:14.818Z,3.51
2018-03-30T00:14:42.285Z,3.34
2018-03-30T00:17:09.729Z,3.37
2018-03-30T00:19:37.278Z,3.40
2018-03-30T00:22:04.738Z,3.51
2018-03-30T00:24:32.185Z,3.53
2018-03-30T00:26:59.665Z,3.36
2018-03-30T00:29:27.117Z,3.38
2018-03-30T00:31:54.569Z,3.42
2018-03-30T00:34:22.349Z,3.27
2018-03-30T00:36:49.781Z,3.29
2018-03-30T00:39:17.217Z,3.32
2018-03-30T00:41:44.905Z,3.34
2018-03-30T00:44:12.391Z,3.41
2018-03-30T00:46:39.859Z,3.23
2018-03-30T00:49:07.353Z,3.37
2018-03-30T00:51:34.794Z,3.12
2018-03-30T00:54:02.254Z,3.01
2018-03-30T00:56:29.717Z,3.07
2018-03-30T00:58:57.159Z,3.15
2018-03-30T01:01:24.617Z,3.05
2018-03-30T01:03:52.197Z,3.21
2018-03-30T01:06:19.640Z,3.28
2018-03-30T01:08:47.094Z,3.43
2018-03-30T01:11:14.801Z,3.21
2018-03-30T01:13:42.241Z,3.11
2018-03-30T01:16:09.883Z,3.37
2018-03-30T01:18:37.371Z,3.19
2018-03-30T01:21:04.818Z,3.04
2018-03-30T01:23:32.257Z,2.90
2018-03-30T01:25:59.733Z,2.90
2018-03-30T01:28:27.172Z,2.93
2018-03-30T01:30:54.613Z,2.97
2018-03-30T01:33:22.253Z,2.96
2018-03-30T01:35:49.688Z,2.77
2018-03-30T01:38:17.129Z,2.83
2018-03-30T01:40:44.752Z,2.72
2018-03-30T01:43:12.221Z,2.74
2018-03-30T01:45:39.681Z,2.65
2018-03-30T01:48:07.467Z,2.88
2018-03-30T01:50:34.906Z,2.74
2018-03-30T01:53:02.343Z,2.62
2018-03-30T01:55:29.906Z,2.36
2018-03-30T01:57:57.341Z,2.57
2018-03-30T02:00:24.777Z,2.46
2018-03-30T02:02:52.400Z,2.85
2018-03-30T02:05:19.849Z,2.67
2018-03-30T02:07:47.286Z,2.64
2018-03-30T02:10:14.997Z,2.53
2018-03-30T02:12:42.433Z,2.51
2018-03-30T02:15:09.883Z,2.25
2018-03-30T02:17:37.353Z,2.34
2018-03-30T02:20:04.802Z,2.28
2018-03-30T02:22:32.241Z,2.27
2018-03-30T02:24:59.805Z,2.26
2018-03-30T02:27:27.281Z,2.45
2018-03-30T02:29:54.717Z,2.06
2018-03-30T02:32:22.177Z,2.12
2018-03-30T02:34:49.622Z,2.09
2018-03-30T02:37:17.261Z,2.24
2018-03-30T02:39:44.699Z,2.20
2018-03-30T02:42:12.134Z,2.01
2018-03-30T02:44:39.642Z,2.01
2018-03-30T02:47:07.096Z,1.89
2018-03-30T02:49:34.951Z,1.91
2018-03-30T02:52:02.394Z,1.98
2018-03-30T02:54:29.843Z,1.96
2018-03-30T02:56:57.311Z,1.69
2018-03-30T02:59:24.758Z,1.76
2018-03-30T03:01:52.244Z,1.77
2018-03-30T03:04:19.689Z,1.98
2018-03-30T03:06:47.142Z,1.74
2018-03-30T03:09:14.627Z,1.79
2018-03-30T03:11:42.082Z,1.70
2018-03-30T03:14:09.657Z,1.83
2018-03-30T03:16:37.121Z,1.59
2018-03-30T03:19:04.621Z,1.68
2018-03-30T03:21:32.074Z,1.33
2018-03-30T03:23:59.513Z,1.39
2018-03-30T03:26:26.973Z,1.46
2018-03-30T03:28:54.425Z,1.55
2018-03-30T03:31:21.866Z,1.72
2018-03-30T03:33:49.346Z,1.86
2018-03-30T03:36:16.781Z,1.86
2018-03-30T03:38:44.420Z,1.78
2018-03-30T03:41:11.949Z,1.83
2018-03-30T03:43:39.349Z,1.69
2018-03-30T03:46:06.809Z,1.74
2018-03-30T03:48:34.270Z,1.77
2018-03-30T03:51:01.864Z,1.84
2018-03-30T03:53:29.313Z,1.99
2018-03-30T03:55:56.862Z,1.72
2018-03-30T03:58:24.322Z,1.62
2018-03-30T04:00:51.801Z,1.79
2018-03-30T04:03:19.405Z,2.16
2018-03-30T04:05:46.842Z,2.02
2018-03-30T04:08:14.273Z,1.81
2018-03-30T04:10:41.733Z,1.72
2018-03-30T04:13:09.205Z,1.59
2018-03-30T04:15:36.862Z,1.41
2018-03-30T04:18:04.298Z,1.40
2018-03-30T04:20:31.737Z,1.61
2018-03-30T04:22:59.204Z,1.31
2018-03-30T04:25:26.649Z,1.31
2018-03-30T04:27:54.121Z,1.44
2018-03-30T04:30:21.562Z,1.42
2018-03-30T04:32:49.020Z,1.22
2018-03-30T04:35:16.493Z,1.29
2018-03-30T04:37:43.936Z,1.82
2018-03-30T04:40:11.425Z,1.37
2018-03-30T04:42:38.861Z,1.51
2018-03-30T04:45:06.314Z,1.60
2018-03-30T04:47:33.767Z,1.47
2018-03-30T04:50:01.259Z,1.35
2018-03-30T04:52:28.802Z,1.26
2018-03-30T04:54:56.333Z,1.18
2018-03-30T04:57:23.772Z,1.14
2018-03-30T04:59:51.294Z,1.01
2018-03-30T05:02:18.765Z,1.14
2018-03-30T05:04:46.350Z,1.25
2018-03-30T05:07:13.787Z,1.18
2018-03-30T05:09:41.245Z,1.10
2018-03-30T05:12:08.818Z,0.96
2018-03-30T05:14:36.266Z,1.11
2018-03-30T05:17:03.967Z,1.10
2018-03-30T05:19:31.418Z,1.31
2018-03-30T05:21:58.879Z,1.36
2018-03-30T05:24:26.383Z,1.26
2018-03-30T05:26:53.817Z,1.20
2018-03-30T05:29:21.461Z,1.39
2018-03-30T05:31:48.909Z,1.49
2018-03-30T05:34:16.349Z,1.49
2018-03-30T05:36:43.811Z,1.32
2018-03-30T05:39:11.261Z,1.44
2018-03-30T05:41:38.875Z,1.75
2018-03-30T05:44:06.385Z,1.90
2018-03-30T05:46:33.831Z,2.07
2018-03-30T05:49:01.290Z,2.17
2018-03-30T05:51:28.725Z,2.29
2018-03-30T05:53:56.335Z,2.20
2018-03-30T05:56:23.778Z,2.17
2018-03-30T05:58:51.217Z,2.31
2018-03-30T06:01:18.676Z,2.43
2018-03-30T06:03:46.117Z,2.49
2018-03-30T06:06:13.816Z,2.42
2018-03-30T06:08:41.261Z,2.49
2018-03-30T06:11:08.701Z,2.67
2018-03-30T06:13:36.174Z,2.69
2018-03-30T06:16:03.641Z,2.82
2018-03-30T06:18:31.118Z,2.90
2018-03-30T06:20:58.550Z,2.84
2018-03-30T06:23:25.989Z,2.86
2018-03-30T06:25:53.477Z,2.92
2018-03-30T06:28:20.926Z,3.01
2018-03-30T06:30:48.405Z,2.94
2018-03-30T06:33:15.869Z,2.96
2018-03-30T06:35:43.313Z,3.04
2018-03-30T06:38:10.782Z,2.98
2018-03-30T06:40:38.241Z,3.02
2018-03-30T06:43:06.061Z,2.97
2018-03-30T06:45:33.505Z,2.94
2018-03-30T06:48:00.950Z,3.05
2018-03-30T06:50:28.466Z,3.10
2018-03-30T06:52:55.922Z,3.18
2018-03-30T06:55:23.404Z,3.33
2018-03-30T06:57:50.883Z,3.58
2018-03-30T07:00:18.359Z,3.74
2018-03-30T07:02:45.825Z,4.19
2018-03-30T07:05:13.290Z,3.99
2018-03-30T07:07:40.765Z,3.95
2018-03-30T07:10:08.212Z,4.19
2018-03-30T07:12:35.666Z,4.06
2018-03-30T07:15:03.130Z,4.20
2018-03-30T07:17:30.569Z,4.36
2018-03-30T07:19:58.311Z,4.79
2018-03-30T07:22:25.745Z,4.89
2018-03-30T07:24:53.202Z,4.74
2018-03-30T07:27:20.705Z,4.70
2018-03-30T07:29:48.145Z,5.20
2018-03-30T07:32:15.750Z,5.42
2018-03-30T07:34:43.226Z,5.39
2018-03-30T07:37:10.669Z,5.14
2018-03-30T07:39:38.157Z,5.34
2018-03-30T07:42:05.597Z,5.33
2018-03-30T07:44:33.203Z,5.52
2018-03-30T07:47:00.654Z,5.78
2018-03-30T07:49:28.093Z,6.07
2018-03-30T07:51:55.561Z,6.44
2018-03-30T07:54:23.006Z,6.47
2018-03-30T07:56:50.475Z,6.23
2018-03-30T07:59:17.919Z,6.26
2018-03-30T08:01:45.385Z,6.44
2018-03-30T08:04:12.864Z,6.62
2018-03-30T08:06:40.310Z,7.05
2018-03-30T08:09:08.046Z,7.27
2018-03-30T08:11:35.522Z,7.32
2018-03-30T08:14:02.973Z,7.67
2018-03-30T08:16:30.435Z,7.55
2018-03-30T08:18:57.901Z,8.01
2018-03-30T08:21:25.385Z,7.67
2018-03-30T08:23:52.839Z,7.94
2018-03-30T08:26:20.285Z,8.02
2018-03-30T08:28:47.758Z,8.02
2018-03-30T08:31:15.217Z,8.21
2018-03-30T08:33:42.697Z,8.57
2018-03-30T08:36:10.134Z,8.47
2018-03-30T08:38:37.577Z,8.50
2018-03-30T08:41:05.047Z,8.66
2018-03-30T08:43:32.503Z,8.61
2018-03-30T08:46:00.016Z,8.37
2018-03-30T08:48:27.470Z,8.55
2018-03-30T08:50:54.926Z,8.67
2018-03-30T08:53:22.389Z,8.74
2018-03-30T08:55:49.831Z,8.24
2018-03-30T08:58:17.386Z,8.12
2018-03-30T09:00:44.829Z,8.50
2018-03-30T09:03:12.293Z,8.58
2018-03-30T09:05:39.761Z,8.69
2018-03-30T09:08:07.201Z,8.56
2018-03-30T09:10:34.845Z,8.65
2018-03-30T09:13:02.298Z,8.69
2018-03-30T09:15:29.734Z,9.12
2018-03-30T09:17:57.212Z,9.11
2018-03-30T09:20:24.695Z,8.82
2018-03-30T09:22:52.278Z,9.33
2018-03-30T09:25:19.717Z,9.19
2018-03-30T09:27:47.157Z,9.00
2018-03-30T09:30:14.621Z,9.75
2018-03-30T09:32:42.071Z,10.15
2018-03-30T09:35:09.547Z,9.65
2018-03-30T09:37:36.991Z,9.74
2018-03-30T09:40:04.618Z,9.66
2018-03-30T09:42:32.202Z,9.83
2018-03-30T09:44:59.649Z,9.95
2018-03-30T09:47:27.453Z,9.52
2018-03-30T09:49:54.895Z,9.44
2018-03-30T09:52:22.549Z,9.67
2018-03-30T09:54:50.001Z,9.87
2018-03-30T09:57:17.445Z,10.01
2018-03-30T09:59:44.929Z,10.15
2018-03-30T10:02:12.422Z,10.34
2018-03-30T10:04:45.101Z,10.40
2018-03-30T10:07:12.541Z,10.16
2018-03-30T10:09:39.998Z,10.23
2018-03-30T10:12:07.463Z,10.41
2018-03-30T10:14:34.905Z,10.26
2018-03-30T10:17:02.554Z,10.32
2018-03-30T10:19:30.015Z,10.57
2018-03-30T10:21:57.465Z,10.89
2018-03-30T10:24:24.953Z,10.42
2018-03-30T10:26:52.393Z,10.60
2018-03-30T10:29:19.861Z,10.51
2018-03-30T10:31:47.306Z,10.42
2018-03-30T10:34:14.749Z,10.41
2018-03-30T10:36:42.210Z,10.65
2018-03-30T10:39:09.672Z,10.69
2018-03-30T10:41:37.453Z,10.77
2018-03-30T10:44:04.898Z,10.88
2018-03-30T10:46:32.358Z,10.89
2018-03-30T10:48:59.821Z,10.91
2018-03-30T10:51:27.282Z,10.78
2018-03-30T10:53:55.009Z,10.93
2018-03-30T10:56:22.454Z,10.97
2018-03-30T10:58:49.904Z,10.87
2018-03-30T11:01:17.377Z,11.16
2018-03-30T11:03:44.825Z,11.34
2018-03-30T11:06:12.453Z,11.45
2018-03-30T11:08:39.918Z,11.27
2018-03-30T11:11:07.440Z,11.20
2018-03-30T11:13:34.922Z,11.18
2018-03-30T11:16:02.362Z,11.24
2018-03-30T11:18:29.988Z,11.27
2018-03-30T11:20:57.438Z,11.48
2018-03-30T11:23:24.877Z,11.83
2018-03-30T11:25:52.354Z,11.48
2018-03-30T11:28:19.805Z,11.46
2018-03-30T11:30:47.274Z,11.72
2018-03-30T11:33:14.722Z,11.51
2018-03-30T11:35:42.173Z,11.63
2018-03-30T11:38:09.636Z,11.62
2018-03-30T11:40:37.082Z,11.66
2018-03-30T11:43:04.553Z,11.79
2018-03-30T11:45:32.025Z,11.74
2018-03-30T11:47:59.481Z,12.20
2018-03-30T11:50:26.984Z,12.36
2018-03-30T11:52:54.434Z,12.24
2018-03-30T11:55:22.103Z,12.19
2018-03-30T11:57:49.561Z,12.35
2018-03-30T12:00:17.003Z,12.42
2018-03-30T12:02:44.467Z,12.35
2018-03-30T12:05:11.913Z,12.34
2018-03-30T12:07:39.597Z,12.27
2018-03-30T12:10:07.095Z,12.38
2018-03-30T12:12:34.551Z,12.48
2018-03-30T12:15:02.018Z,12.70
2018-03-30T12:17:29.466Z,12.49
2018-03-30T12:19:56.948Z,12.60
2018-03-30T12:22:25.204Z,12.57
2018-03-30T12:24:52.645Z,12.65
2018-03-30T12:27:20.133Z,12.58
2018-03-30T12:29:47.591Z,12.50
2018-03-30T12:32:15.074Z,12.62
2018-03-30T12:34:42.517Z,12.79
2018-03-30T12:37:09.973Z,12.80
2018-03-30T12:39:37.477Z,12.71
2018-03-30T12:42:05.076Z,12.71
2018-03-30T12:44:32.554Z,12.66
2018-03-30T12:46:59.998Z,12.68
2018-03-30T12:49:27.441Z,13.00
2018-03-30T12:51:54.912Z,13.01
2018-03-30T12:54:22.392Z,12.85
2018-03-30T12:56:50.008Z,12.77
2018-03-30T12:59:17.453Z,12.79
2018-03-30T13:01:44.961Z,12.96
2018-03-30T13:04:12.498Z,13.00
2018-03-30T13:06:39.942Z,13.01
2018-03-30T13:09:07.514Z,12.93
2018-03-30T13:11:34.958Z,12.98
2018-03-30T13:14:02.403Z,13.06
2018-03-30T13:16:29.878Z,13.29
2018-03-30T13:18:57.316Z,13.29
2018-03-30T13:21:24.901Z,13.24
2018-03-30T13:23:52.372Z,13.33
2018-03-30T13:26:19.831Z,13.36
2018-03-30T13:28:47.308Z,13.21
2018-03-30T13:31:14.753Z,13.02
2018-03-30T13:33:42.237Z,12.93
2018-03-30T13:36:09.681Z,13.12
2018-03-30T13:38:37.173Z,13.06
2018-03-30T13:41:04.638Z,13.18
2018-03-30T13:43:32.402Z,13.20
2018-03-30T13:46:00.224Z,13.09
2018-03-30T13:48:27.663Z,13.02
2018-03-30T13:50:58.850Z,13.14
2018-03-30T13:53:44.045Z,13.18
2018-03-30T13:56:14.305Z,13.14
2018-03-30T13:58:44.186Z,13.19
2018-03-30T14:01:12.614Z,13.46
2018-03-30T14:03:42.033Z,13.62
2018-03-30T14:06:20.084Z,13.58
2018-03-30T14:08:52.397Z,13.72
2018-03-30T14:11:25.434Z,13.53
2018-03-30T14:13:52.902Z,13.63
2018-03-30T14:16:25.780Z,13.77
2018-03-30T14:19:00.719Z,13.47
2018-03-30T14:24:28.438Z,13.29
2018-03-30T14:27:13.455Z,13.31
2018-03-30T14:29:41.722Z,13.17
2018-03-30T14:32:29.029Z,13.02
2018-03-30T14:34:58.148Z,13.12
2018-03-30T14:37:27.444Z,12.74
2018-03-30T14:39:58.968Z,12.60
2018-03-30T14:42:32.891Z,12.65
2018-03-30T14:45:07.169Z,12.57
2018-03-30T14:47:36.434Z,12.71
2018-03-30T14:50:06.450Z,12.66
2018-03-30T14:52:44.674Z,12.60
2018-03-30T14:58:29.010Z,12.51
2018-03-30T15:01:01.427Z,12.61
2018-03-30T15:03:31.650Z,12.48
2018-03-30T15:06:08.896Z,12.48
2018-03-30T15:08:53.987Z,12.47
2018-03-30T15:14:19.354Z,12.44
2018-03-30T15:17:06.738Z,12.35
2018-03-30T15:19:35.913Z,12.27
2018-03-30T15:22:25.651Z,12.24
2018-03-30T15:24:56.819Z,12.28
2018-03-30T15:27:33.474Z,12.34
2018-03-30T15:30:05.320Z,12.22
2018-03-30T15:32:40.384Z,12.24
2018-03-30T15:35:13.337Z,12.15
2018-03-30T15:37:40.862Z,12.18
2018-03-30T15:40:20.034Z,12.04
2018-03-30T15:42:52.389Z,12.34
2018-03-30T15:45:21.565Z,12.13
2018-03-30T15:47:49.006Z,12.22
2018-03-30T15:50:16.484Z,12.11
2018-03-30T15:52:43.937Z,12.04
2018-03-30T15:55:11.915Z,12.05
2018-03-30T15:57:39.375Z,12.01
2018-03-30T16:00:08.405Z,12.09
2018-03-30T16:02:35.867Z,12.13
2018-03-30T16:05:03.323Z,12.14
2018-03-30T16:07:30.981Z,12.09
2018-03-30T16:10:09.913Z,12.17
2018-03-30T16:12:37.402Z,12.22
2018-03-30T16:15:04.842Z,12.07
2018-03-30T16:17:32.294Z,11.88
2018-03-30T16:19:59.264Z,11.83
2018-03-30T16:22:26.173Z,11.77
2018-03-30T16:24:53.145Z,11.93
2018-03-30T16:27:20.057Z,12.14
2018-03-30T16:29:46.978Z,11.99
2018-03-30T16:32:13.906Z,11.82
2018-03-30T16:34:41.353Z,11.69
2018-03-30T16:37:08.416Z,12.01
2018-03-30T16:39:35.330Z,11.62
2018-03-30T16:42:02.239Z,11.48
2018-03-30T16:44:29.170Z,11.41
2018-03-30T16:46:56.105Z,11.42
2018-03-30T16:49:23.187Z,11.34
2018-03-30T16:51:50.094Z,11.32
2018-03-30T16:54:17.022Z,11.55
2018-03-30T16:56:43.975Z,11.77
2018-03-30T16:59:10.924Z,11.49
2018-03-30T17:01:37.974Z,11.67
2018-03-30T17:04:04.895Z,11.64
2018-03-30T17:06:31.801Z,11.42
2018-03-30T17:08:58.721Z,11.44
2018-03-30T17:11:25.626Z,11.42
2018-03-30T17:13:52.673Z,11.61
2018-03-30T17:16:19.580Z,11.22
2018-03-30T17:18:46.489Z,11.29
2018-03-30T17:21:13.423Z,11.49
2018-03-30T17:23:40.330Z,10.92
2018-03-30T17:26:07.366Z,10.67
2018-03-30T17:28:34.275Z,10.74
2018-03-30T17:31:01.179Z,10.82
2018-03-30T17:33:28.123Z,10.65
2018-03-30T17:35:55.029Z,10.65
2018-03-30T17:38:22.150Z,10.65
2018-03-30T17:40:49.055Z,10.61
2018-03-30T17:43:15.969Z,10.40
2018-03-30T17:45:42.902Z,10.39
2018-03-30T17:48:09.825Z,10.53
2018-03-30T17:50:37.226Z,10.54
2018-03-30T17:53:04.146Z,10.66
2018-03-30T17:55:31.070Z,10.85
2018-03-30T17:57:57.997Z,10.61
2018-03-30T18:00:24.906Z,10.40
2018-03-30T18:02:51.981Z,10.38
2018-03-30T18:05:18.901Z,10.32
2018-03-30T18:07:45.821Z,10.31
2018-03-30T18:10:12.777Z,10.27
2018-03-30T18:12:39.712Z,10.30
2018-03-30T18:15:06.864Z,10.13
2018-03-30T18:17:33.780Z,10.14
2018-03-30T18:20:00.742Z,10.17
2018-03-30T18:22:27.686Z,10.09
2018-03-30T18:24:54.625Z,10.17
2018-03-30T18:27:21.713Z,10.16
2018-03-30T18:29:48.638Z,10.08
2018-03-30T18:32:15.578Z,10.07
2018-03-30T18:34:42.521Z,10.14
2018-03-30T18:37:09.524Z,10.02
2018-03-30T18:39:36.398Z,10.09
2018-03-30T18:42:03.353Z,10.08
2018-03-30T18:44:30.265Z,10.39
2018-03-30T18:46:57.193Z,10.18
2018-03-30T18:49:24.101Z,10.12
2018-03-30T18:51:51.298Z,9.95
2018-03-30T18:54:18.212Z,9.82
2018-03-30T18:56:45.770Z,9.86
2018-03-30T18:59:12.713Z,9.80
2018-03-30T19:01:39.622Z,9.83
2018-03-30T19:04:06.871Z,9.78
2018-03-30T19:06:33.845Z,9.76
2018-03-30T19:09:00.752Z,9.75
2018-03-30T19:11:27.686Z,9.64
2018-03-30T19:13:54.595Z,9.66
2018-03-30T19:16:21.885Z,9.64
2018-03-30T19:18:48.793Z,9.86
2018-03-30T19:21:15.714Z,9.66
2018-03-30T19:23:42.715Z,9.55
2018-03-30T19:26:09.653Z,9.64
2018-03-30T19:28:36.877Z,9.72
2018-03-30T19:31:03.816Z,9.64
2018-03-30T19:33:30.754Z,9.56
2018-03-30T19:35:58.906Z,9.62
2018-03-30T19:38:25.805Z,9.58
2018-03-30T19:40:52.934Z,9.59
2018-03-30T19:43:19.871Z,9.45
2018-03-30T19:45:46.806Z,9.47
2018-03-30T19:48:13.757Z,9.42
2018-03-30T19:50:40.700Z,9.45
2018-03-30T19:53:07.888Z,9.57
2018-03-30T19:55:34.806Z,9.59
2018-03-30T19:58:01.721Z,9.49
2018-03-30T20:00:28.710Z,9.77
2018-03-30T20:02:55.625Z,9.68
2018-03-30T20:05:22.881Z,9.68
2018-03-30T20:07:49.797Z,9.75
2018-03-30T20:10:16.705Z,9.62
2018-03-30T20:12:43.645Z,9.67
2018-03-30T20:15:10.565Z,9.58
2018-03-30T20:17:38.552Z,9.51
2018-03-30T20:20:05.490Z,9.51
2018-03-30T20:22:32.419Z,9.76
2018-03-30T20:24:59.354Z,9.66
2018-03-30T20:27:26.258Z,9.55
2018-03-30T20:29:53.575Z,9.77
2018-03-30T20:32:20.493Z,9.69
2018-03-30T20:34:47.443Z,9.73
2018-03-30T20:37:14.387Z,9.58
2018-03-30T20:39:41.320Z,9.59
2018-03-30T20:42:08.693Z,9.69
2018-03-30T20:44:35.603Z,9.62
2018-03-30T20:47:02.518Z,9.55
2018-03-30T20:49:29.450Z,9.65
2018-03-30T20:51:56.360Z,9.56
2018-03-30T20:54:23.380Z,9.52
2018-03-30T20:56:50.262Z,9.45
2018-03-30T20:59:17.174Z,9.41
2018-03-30T21:01:44.145Z,9.46
2018-03-30T21:04:11.060Z,9.20
2018-03-30T21:06:37.985Z,9.23
2018-03-30T21:09:04.890Z,9.27
2018-03-30T21:11:31.794Z,9.14
2018-03-30T21:13:58.738Z,8.98
2018-03-30T21:16:25.649Z,8.76
2018-03-30T21:18:52.596Z,8.61
2018-03-30T21:21:19.498Z,8.30
2018-03-30T21:23:46.405Z,8.30
2018-03-30T21:26:13.350Z,8.26
2018-03-30T21:28:40.253Z,8.47
2018-03-30T21:31:07.466Z,8.54
2018-03-30T21:33:34.375Z,9.01
2018-03-30T21:36:01.306Z,8.74
2018-03-30T21:38:28.229Z,8.77
2018-03-30T21:40:55.135Z,8.90
2018-03-30T21:43:22.209Z,9.07
2018-03-30T21:45:49.113Z,9.14
2018-03-30T21:48:16.018Z,9.01
2018-03-30T21:50:42.951Z,9.13
2018-03-30T21:53:09.885Z,8.94
2018-03-30T21:55:36.957Z,8.85
2018-03-30T21:58:03.861Z,8.77
2018-03-30T22:00:30.762Z,9.11
2018-03-30T22:02:57.710Z,8.99
2018-03-30T22:05:24.610Z,8.95
2018-03-30T22:07:51.777Z,8.85
2018-03-30T22:10:18.678Z,9.08
2018-03-30T22:12:45.578Z,8.86
2018-03-30T22:15:12.525Z,8.89
2018-03-30T22:17:39.457Z,8.90
2018-03-30T22:20:06.420Z,9.13
2018-03-30T22:22:33.321Z,8.83
2018-03-30T22:25:00.226Z,8.89
2018-03-30T22:27:27.146Z,8.89
2018-03-30T22:29:54.050Z,8.79
2018-03-30T22:32:21.149Z,8.57
2018-03-30T22:34:48.049Z,8.54
2018-03-30T22:37:14.957Z,8.46
2018-03-30T22:39:41.887Z,8.53
2018-03-30T22:42:08.812Z,8.50
2018-03-30T22:44:36.149Z,8.31
2018-03-30T22:47:03.053Z,8.14
2018-03-30T22:49:29.958Z,8.08
2018-03-30T22:51:56.877Z,7.76
2018-03-30T22:54:23.828Z,7.52
2018-03-30T22:56:50.757Z,7.26
2018-03-30T22:59:17.669Z,7.17
2018-03-30T23:01:44.572Z,7.23
2018-03-30T23:04:11.493Z,7.18
2018-03-30T23:06:38.397Z,7.20
2018-03-30T23:09:05.390Z,7.00
2018-03-30T23:11:32.305Z,7.15
2018-03-30T23:13:59.208Z,7.06
2018-03-30T23:16:26.137Z,7.30
2018-03-30T23:18:53.036Z,7.44
2018-03-30T23:21:20.213Z,7.31
2018-03-30T23:23:47.128Z,7.26
2018-03-30T23:26:14.030Z,7.28
2018-03-30T23:28:40.969Z,7.22
2018-03-30T23:31:07.881Z,7.12
2018-03-30T23:33:34.981Z,7.15
2018-03-30T23:36:01.886Z,7.04
2018-03-30T23:38:28.806Z,7.03
2018-03-30T23:40:55.750Z,7.05
2018-03-30T23:43:22.654Z,7.08
2018-03-30T23:45:49.773Z,7.36
2018-03-30T23:48:16.682Z,6.92
2018-03-30T23:50:43.578Z,7.07
2018-03-30T23:53:10.515Z,7.03
2018-03-30T23:55:37.438Z,6.88
2018-03-30T23:58:04.359Z,6.80
